Time;durP1;ratioP1;P1;durP2;ratioP2;P2;SDS_P1;SDS_P2;PMS_P1;PMS_P2;Temp;Humidity;BMP_temperature;BMP_pressure;BME280_temperature;BME280_humidity;BME280_pressure;Samples;Min_cycle;Max_cycle;Signal;HPM_P1;HPM_P2
2022/06/09 00:00:40;;;;;;;13.63;2.42;;;15.00;99.90;;;;;;4969708;28;20458;-57
2022/06/09 00:03:09;;;;;;;13.70;2.45;;;14.90;99.90;;;;;;4969354;28;20070;-59
2022/06/09 00:05:36;;;;;;;14.27;3.03;;;14.80;99.90;;;;;;4968220;28;20490;-59
2022/06/09 00:08:04;;;;;;;27.38;4.72;;;14.80;99.90;;;;;;4984282;28;20074;-59
2022/06/09 00:10:39;;;;;;;18.92;2.65;;;14.80;99.90;;;;;;4969147;28;20074;-59
2022/06/09 00:13:06;;;;;;;21.50;4.20;;;14.80;99.90;;;;;;4960762;28;20051;-59
2022/06/09 00:15:34;;;;;;;14.23;2.55;;;14.80;99.90;;;;;;4968128;28;20421;-60
2022/06/09 00:18:00;;;;;;;10.95;3.08;;;14.70;99.90;;;;;;4969454;28;20699;-58
2022/06/09 00:20:27;;;;;;;20.50;2.70;;;14.70;99.90;;;;;;4968658;28;20066;-59
2022/06/09 00:22:54;;;;;;;22.90;2.67;;;14.60;99.90;;;;;;4969389;28;20046;-58
2022/06/09 00:25:21;;;;;;;23.10;5.30;;;14.50;99.90;;;;;;4968876;28;20094;-59
2022/06/09 00:27:48;;;;;;;28.80;3.25;;;14.50;99.90;;;;;;4969640;28;20054;-58
2022/06/09 00:30:16;;;;;;;15.00;4.03;;;14.50;99.90;;;;;;4968683;28;20047;-56
2022/06/09 00:32:44;;;;;;;19.15;3.88;;;14.40;99.90;;;;;;4966907;28;20050;-58
2022/06/09 00:35:11;;;;;;;17.52;3.67;;;14.40;99.90;;;;;;4968719;28;20409;-59
2022/06/09 00:37:37;;;;;;;22.17;3.85;;;14.30;99.90;;;;;;4969459;28;20481;-57
2022/06/09 00:40:05;;;;;;;17.92;3.17;;;14.30;99.90;;;;;;4969178;28;20047;-59
2022/06/09 00:42:34;;;;;;;19.60;2.80;;;14.30;99.90;;;;;;4968854;28;20391;-59
2022/06/09 00:45:27;;;;;;;28.60;3.95;;;14.30;99.90;;;;;;4969048;28;20047;-59
2022/06/09 00:48:10;;;;;;;19.58;2.75;;;14.30;99.90;;;;;;4967447;28;20050;-57
2022/06/09 00:50:37;;;;;;;19.23;2.97;;;14.30;99.90;;;;;;4968215;28;20128;-55
2022/06/09 00:53:06;;;;;;;19.02;2.20;;;14.20;99.90;;;;;;4967490;28;20043;-58
2022/06/09 00:55:34;;;;;;;20.98;2.47;;;14.30;99.90;;;;;;4968731;28;20093;-59
2022/06/09 00:58:06;;;;;;;26.13;6.43;;;14.20;99.90;;;;;;4966856;28;20074;-58
2022/06/09 01:01:02;;;;;;;28.30;3.22;;;14.20;99.90;;;;;;4992325;28;20117;-59
2022/06/09 01:03:40;;;;;;;23.45;3.65;;;14.20;99.90;;;;;;4966227;28;20078;-57
2022/06/09 01:06:09;;;;;;;25.20;4.28;;;14.20;99.90;;;;;;4633849;28;9999741;-58
2022/06/09 01:08:40;;;;;;;11.48;2.53;;;14.20;99.90;;;;;;4960594;28;20075;-58
2022/06/09 01:11:07;;;;;;;17.45;3.38;;;14.30;99.90;;;;;;4994393;28;20456;-61
2022/06/09 01:13:34;;;;;;;17.42;3.30;;;14.20;99.90;;;;;;4968658;28;20043;-56
2022/06/09 01:16:07;;;;;;;21.40;5.05;;;14.20;99.90;;;;;;4968488;28;20090;-59
2022/06/09 01:18:42;;;;;;;19.93;3.20;;;14.20;99.90;;;;;;4999194;28;20054;-58
2022/06/09 01:21:35;;;;;;;14.55;2.70;;;14.20;99.90;;;;;;4968061;28;20760;-56
2022/06/09 01:24:30;;;;;;;21.80;3.65;;;14.10;99.90;;;;;;4979752;28;20122;-58
2022/06/09 01:27:34;;;;;;;18.40;3.25;;;14.00;99.90;;;;;;4968653;28;20078;-57
2022/06/09 01:30:30;;;;;;;17.88;2.88;;;14.00;99.90;;;;;;4969102;28;20074;-58
2022/06/09 01:33:04;;;;;;;21.50;3.33;;;13.90;99.90;;;;;;4964692;28;20043;-58
2022/06/09 01:35:44;;;;;;;20.60;3.72;;;13.90;99.90;;;;;;4960116;28;20049;-59
2022/06/09 01:38:11;;;;;;;17.35;2.78;;;13.90;99.90;;;;;;4964973;28;20047;-57
2022/06/09 01:40:37;;;;;;;20.55;3.70;;;13.80;99.90;;;;;;4983334;28;20097;-56
2022/06/09 01:43:05;;;;;;;22.33;4.38;;;13.80;99.90;;;;;;4967266;28;20097;-56
2022/06/09 01:46:15;;;;;;;22.92;3.70;;;13.80;99.90;;;;;;4968411;28;20126;-57
2022/06/09 01:48:42;;;;;;;16.55;3.67;;;13.80;99.90;;;;;;4971904;28;20097;-57
2022/06/09 01:51:14;;;;;;;22.10;3.40;;;13.70;99.90;;;;;;4970797;28;20082;-58
2022/06/09 01:53:47;;;;;;;17.73;3.35;;;13.70;99.90;;;;;;4970957;28;20468;-61
2022/06/09 01:56:32;;;;;;;27.55;3.33;;;13.80;99.90;;;;;;4971166;28;20109;-58
2022/06/09 01:59:17;;;;;;;15.38;3.20;;;13.80;99.90;;;;;;4970718;28;20097;-58
2022/06/09 02:02:01;;;;;;;14.52;3.13;;;13.70;99.90;;;;;;4970607;28;20105;-57
2022/06/09 02:04:42;;;;;;;15.10;2.80;;;13.70;99.90;;;;;;4967718;28;20422;-58
2022/06/09 02:07:09;;;;;;;16.08;2.80;;;13.70;99.90;;;;;;4987531;28;20054;-58
2022/06/09 02:09:37;;;;;;;18.08;3.15;;;13.70;99.90;;;;;;4970000;28;20043;-58
2022/06/09 02:12:10;;;;;;;19.45;3.80;;;13.60;99.90;;;;;;4971420;28;20051;-59
2022/06/09 02:14:43;;;;;;;16.92;3.00;;;13.60;99.90;;;;;;4970348;28;20062;-57
2022/06/09 02:17:10;;;;;;;18.15;2.90;;;13.60;99.90;;;;;;5001428;28;20055;-58
2022/06/09 02:19:38;;;;;;;12.05;2.65;;;13.50;99.90;;;;;;4971468;28;20478;-60
2022/06/09 02:22:05;;;;;;;23.85;4.28;;;13.50;99.90;;;;;;5001326;28;20070;-58
2022/06/09 02:24:32;;;;;;;16.08;3.35;;;13.50;99.90;;;;;;4970494;28;20043;-59
2022/06/09 02:26:59;;;;;;;19.48;2.97;;;13.50;99.90;;;;;;4971561;28;20105;-58
2022/06/09 02:29:27;;;;;;;18.52;3.17;;;13.50;99.90;;;;;;4986206;28;20055;-60
2022/06/09 02:31:54;;;;;;;13.30;2.92;;;13.50;99.90;;;;;;4984568;28;20181;-58
2022/06/09 02:34:21;;;;;;;16.65;4.60;;;13.50;99.90;;;;;;4971274;28;20089;-57
2022/06/09 02:36:47;;;;;;;24.63;3.92;;;13.40;99.90;;;;;;4970277;28;20047;-58
2022/06/09 02:39:14;;;;;;;17.80;3.88;;;13.40;99.90;;;;;;4966384;28;20051;-58
2022/06/09 02:41:41;;;;;;;13.93;3.20;;;13.50;99.90;;;;;;4970562;28;20086;-57
2022/06/09 02:44:08;;;;;;;19.25;3.40;;;13.50;99.90;;;;;;4971252;28;20051;-58
2022/06/09 02:46:35;;;;;;;21.23;4.70;;;13.40;99.90;;;;;;4970737;28;20051;-59
2022/06/09 02:49:02;;;;;;;24.85;3.92;;;13.30;99.90;;;;;;4971095;28;20039;-58
2022/06/09 02:51:32;;;;;;;14.55;2.58;;;13.20;99.90;;;;;;4971134;28;20074;-60
2022/06/09 02:54:01;;;;;;;15.00;2.58;;;13.30;99.90;;;;;;4970860;28;20058;-59
2022/06/09 02:56:28;;;;;;;15.98;3.00;;;13.20;99.90;;;;;;4971007;28;20080;-58
2022/06/09 02:58:56;;;;;;;15.95;3.20;;;13.20;99.90;;;;;;4970193;28;20105;-55
2022/06/09 03:01:24;;;;;;;22.27;3.90;;;13.20;99.90;;;;;;4993238;28;20055;-57
2022/06/09 03:03:51;;;;;;;20.55;4.07;;;13.10;99.90;;;;;;4969781;28;20113;-58
2022/06/09 03:06:18;;;;;;;23.40;3.55;;;13.20;99.90;;;;;;4966663;28;20097;-57
2022/06/09 03:08:45;;;;;;;16.27;4.38;;;13.10;99.90;;;;;;4968847;28;20074;-57
2022/06/09 03:11:14;;;;;;;19.33;3.65;;;13.00;99.90;;;;;;4968856;28;20054;-57
2022/06/09 03:13:41;;;;;;;22.75;3.17;;;13.00;99.90;;;;;;4971099;28;20059;-60
2022/06/09 03:16:09;;;;;;;27.98;3.42;;;13.00;99.90;;;;;;4970184;28;20054;-55
2022/06/09 03:18:36;;;;;;;20.65;4.03;;;13.00;99.90;;;;;;4970114;28;20047;-59
2022/06/09 03:21:03;;;;;;;14.50;2.90;;;13.00;99.90;;;;;;4970348;28;20058;-58
2022/06/09 03:23:31;;;;;;;16.63;2.28;;;12.90;99.90;;;;;;4967998;28;20050;-58
2022/06/09 03:25:58;;;;;;;16.15;2.70;;;12.90;99.90;;;;;;4970220;28;20093;-59
2022/06/09 03:28:25;;;;;;;16.92;2.50;;;12.90;99.90;;;;;;4985300;28;20078;-59
2022/06/09 03:30:52;;;;;;;19.27;3.17;;;12.90;99.90;;;;;;4970355;28;20082;-57
2022/06/09 03:33:19;;;;;;;21.70;2.90;;;12.90;99.90;;;;;;4969718;28;20074;-60
2022/06/09 03:35:45;;;;;;;19.67;3.45;;;12.90;99.90;;;;;;4970307;28;20059;-57
2022/06/09 03:38:12;;;;;;;19.85;4.05;;;12.90;99.90;;;;;;4969824;28;20046;-58
2022/06/09 03:40:40;;;;;;;23.70;4.18;;;12.90;99.90;;;;;;4969794;28;20129;-58
2022/06/09 03:43:07;;;;;;;17.70;3.58;;;12.90;99.90;;;;;;4969456;28;20569;-58
2022/06/09 03:45:35;;;;;;;26.85;3.38;;;12.90;99.90;;;;;;4969938;28;20097;-58
2022/06/09 03:48:02;;;;;;;23.95;3.72;;;12.90;99.90;;;;;;4968669;28;20043;-58
2022/06/09 03:50:30;;;;;;;19.60;3.33;;;12.90;99.90;;;;;;4969932;28;20138;-58
2022/06/09 03:52:57;;;;;;;23.27;5.90;;;12.80;99.90;;;;;;4969452;28;20569;-56
2022/06/09 03:55:24;;;;;;;17.27;3.75;;;12.90;99.90;;;;;;4969483;28;20086;-59
2022/06/09 03:57:51;;;;;;;15.80;2.65;;;12.90;99.90;;;;;;4968604;28;20506;-59
2022/06/09 04:00:23;;;;;;;21.70;3.83;;;12.80;99.90;;;;;;4969699;28;20421;-57
2022/06/09 04:02:50;;;;;;;25.30;3.40;;;12.90;99.90;;;;;;4981681;28;20086;-59
2022/06/09 04:05:17;;;;;;;29.65;3.95;;;12.90;99.90;;;;;;4968542;28;20057;-63
2022/06/09 04:07:44;;;;;;;21.90;3.88;;;12.90;99.90;;;;;;4969125;28;20082;-55
2022/06/09 04:10:30;;;;;;;16.98;3.22;;;12.90;99.90;;;;;;4967583;28;20051;-59
2022/06/09 04:12:57;;;;;;;24.85;4.13;;;12.90;99.90;;;;;;4969218;28;20051;-58
2022/06/09 04:15:24;;;;;;;15.57;2.88;;;12.90;99.90;;;;;;4969141;28;20078;-59
2022/06/09 04:17:53;;;;;;;22.73;2.92;;;12.90;99.90;;;;;;4968958;28;20047;-58
2022/06/09 04:20:22;;;;;;;18.92;2.80;;;12.90;99.90;;;;;;4967194;28;20082;-58
2022/06/09 04:22:49;;;;;;;15.10;2.80;;;12.90;99.90;;;;;;4966959;28;20125;-58
2022/06/09 04:25:20;;;;;;;16.27;3.15;;;12.90;99.90;;;;;;4967253;28;20109;-59
2022/06/09 04:27:47;;;;;;;20.92;3.38;;;12.90;99.90;;;;;;4969444;28;20093;-58
2022/06/09 04:30:14;;;;;;;24.98;3.42;;;13.00;99.90;;;;;;4968640;28;20054;-58
2022/06/09 04:32:45;;;;;;;27.00;3.28;;;13.00;99.90;;;;;;4964782;28;20129;-59
2022/06/09 04:35:13;;;;;;;15.38;2.83;;;13.00;99.90;;;;;;4968809;28;20046;-58
2022/06/09 04:40:30;;;;;;;28.33;3.35;;;13.10;99.90;;;;;;4968329;28;20047;-58
2022/06/09 04:42:57;;;;;;;26.63;3.33;;;13.10;99.90;;;;;;4969214;28;20100;-58
2022/06/09 04:45:24;;;;;;;11.02;2.47;;;13.20;99.90;;;;;;4968405;28;20046;-58
2022/06/09 04:47:51;;;;;;;21.85;3.60;;;13.10;99.90;;;;;;4968984;28;20074;-58
2022/06/09 04:50:18;;;;;;;17.23;3.42;;;13.20;99.90;;;;;;4968863;28;20042;-58
2022/06/09 04:52:46;;;;;;;22.95;4.68;;;13.20;99.90;;;;;;4968767;28;20137;-59
2022/06/09 04:55:12;;;;;;;21.73;4.10;;;13.20;99.90;;;;;;4968397;28;20039;-55
2022/06/09 04:57:39;;;;;;;22.45;3.45;;;13.20;99.90;;;;;;4968469;28;20142;-57
2022/06/09 05:00:07;;;;;;;19.20;3.30;;;13.30;99.90;;;;;;4968507;28;20109;-59
2022/06/09 05:02:34;;;;;;;26.65;3.97;;;13.20;99.90;;;;;;4968405;28;20078;-60
2022/06/09 05:05:01;;;;;;;18.25;3.42;;;13.20;99.90;;;;;;4964834;28;20577;-58
2022/06/09 05:07:28;;;;;;;21.08;5.03;;;13.20;99.90;;;;;;4965316;28;20097;-58
2022/06/09 05:09:55;;;;;;;20.45;3.28;;;13.20;99.90;;;;;;4964605;28;20078;-58
2022/06/09 05:12:22;;;;;;;29.50;3.90;;;13.20;99.90;;;;;;4967398;28;20047;-58
2022/06/09 05:14:49;;;;;;;19.55;3.00;;;13.30;99.90;;;;;;4966900;28;20078;-57
2022/06/09 05:17:16;;;;;;;23.48;4.93;;;13.30;99.90;;;;;;4967935;28;20062;-58
2022/06/09 05:19:42;;;;;;;20.88;3.90;;;13.30;99.90;;;;;;4968616;28;20626;-59
2022/06/09 05:22:09;;;;;;;27.75;6.88;;;13.40;99.90;;;;;;4970715;28;20082;-57
2022/06/09 05:24:36;;;;;;;18.75;2.80;;;13.40;99.90;;;;;;4971949;28;20115;-58
2022/06/09 05:27:03;;;;;;;14.50;3.03;;;13.40;99.90;;;;;;4972229;28;20109;-59
2022/06/09 05:29:30;;;;;;;32.40;5.18;;;13.30;99.90;;;;;;4987118;28;20062;-57
2022/06/09 05:31:57;;;;;;;21.05;4.22;;;13.30;99.90;;;;;;4972120;28;20047;-58
2022/06/09 05:34:31;;;;;;;;;;;13.40;99.90;;;;;;4971337;28;20046;-59
2022/06/09 05:36:58;;;;;;;20.33;4.25;;;13.40;99.90;;;;;;4972316;28;19961;-58
2022/06/09 05:45:13;;;;;;;21.08;4.70;;;13.40;99.90;;;;;;4901452;29;20147;-57
2022/06/09 05:47:40;;;;;;;18.77;3.53;;;13.50;99.90;;;;;;4961558;28;20051;-58
2022/06/09 05:50:08;;;;;;;21.17;4.50;;;13.50;99.90;;;;;;4971772;28;20102;-58
2022/06/09 05:52:34;;;;;;;23.50;3.58;;;13.50;99.90;;;;;;4971881;28;20529;-59
2022/06/09 05:55:01;;;;;;;19.77;3.17;;;13.50;99.90;;;;;;4971518;28;20109;-57
2022/06/09 05:57:28;;;;;;;22.27;3.95;;;13.60;99.90;;;;;;4971945;28;20050;-58
2022/06/09 05:59:55;;;;;;;29.33;7.50;;;13.70;99.90;;;;;;4971495;28;20078;-57
2022/06/09 06:02:24;;;;;;;24.38;6.00;;;13.80;99.90;;;;;;4970870;28;20410;-57
2022/06/09 06:04:51;;;;;;;19.67;4.43;;;13.80;99.90;;;;;;4971500;28;20054;-58
2022/06/09 06:07:18;;;;;;;20.15;3.97;;;13.80;99.90;;;;;;4969107;28;20057;-57
2022/06/09 06:09:45;;;;;;;22.08;4.03;;;13.80;99.90;;;;;;4971255;28;20485;-56
2022/06/09 06:12:12;;;;;;;24.15;3.50;;;13.80;99.90;;;;;;4970149;28;20471;-58
2022/06/09 06:14:40;;;;;;;20.20;3.60;;;13.90;99.90;;;;;;4971044;28;20463;-58
2022/06/09 06:17:07;;;;;;;20.30;4.60;;;13.90;99.90;;;;;;4970965;28;20117;-53
2022/06/09 06:19:34;;;;;;;21.20;3.38;;;14.00;99.90;;;;;;4970398;28;20051;-57
2022/06/09 06:22:07;;;;;;;14.25;2.42;;;14.00;99.90;;;;;;4970821;28;20559;-58
2022/06/09 06:24:34;;;;;;;18.95;4.10;;;14.00;99.90;;;;;;4970984;28;20359;-59
2022/06/09 06:27:01;;;;;;;16.92;3.22;;;14.00;99.90;;;;;;4969778;28;20082;-58
2022/06/09 06:29:28;;;;;;;19.42;3.80;;;14.00;99.90;;;;;;4966198;28;20082;-58
2022/06/09 06:31:55;;;;;;;17.00;3.42;;;14.10;99.90;;;;;;4970248;28;20090;-57
2022/06/09 06:34:22;;;;;;;16.40;3.30;;;14.10;99.90;;;;;;4970102;28;20054;-59
2022/06/09 06:36:49;;;;;;;21.33;3.97;;;14.20;99.90;;;;;;4969175;28;20158;-56
2022/06/09 06:39:16;;;;;;;14.98;3.70;;;14.30;99.90;;;;;;4970087;28;20062;-58
2022/06/09 06:41:43;;;;;;;22.05;4.25;;;14.40;99.90;;;;;;4963537;28;20054;-58
2022/06/09 06:44:10;;;;;;;17.75;3.35;;;14.50;99.90;;;;;;4969504;28;20058;-57
2022/06/09 06:46:37;;;;;;;18.95;3.92;;;14.60;99.90;;;;;;4970078;28;20046;-58
2022/06/09 06:49:05;;;;;;;14.50;3.25;;;14.60;99.90;;;;;;4969638;28;20047;-60
2022/06/09 06:51:32;;;;;;;13.07;2.78;;;14.70;99.90;;;;;;4970212;28;20047;-59
2022/06/09 06:53:59;;;;;;;22.05;3.35;;;14.80;99.90;;;;;;4969845;28;20510;-59
2022/06/09 06:56:25;;;;;;;23.60;3.55;;;15.00;99.90;;;;;;4968505;28;20117;-60
2022/06/09 06:58:52;;;;;;;19.20;3.50;;;15.00;99.90;;;;;;4974872;28;20494;-58
2022/06/09 07:01:19;;;;;;;19.73;3.50;;;15.10;99.90;;;;;;4968022;28;20078;-58
2022/06/09 07:03:46;;;;;;;26.40;4.43;;;15.30;99.90;;;;;;4966758;28;20050;-58
2022/06/09 07:06:13;;;;;;;23.63;4.07;;;15.30;99.90;;;;;;4968065;28;20046;-59
2022/06/09 07:08:40;;;;;;;18.63;5.28;;;15.30;99.90;;;;;;4967854;28;20054;-59
2022/06/09 07:11:07;;;;;;;18.95;3.25;;;15.40;99.90;;;;;;4968627;28;20082;-59
2022/06/09 07:13:36;;;;;;;17.25;3.63;;;15.40;99.90;;;;;;4969781;28;20486;-56
2022/06/09 07:16:05;;;;;;;20.48;4.20;;;15.50;99.90;;;;;;4969848;28;20133;-59
2022/06/09 07:18:44;;;;;;;18.83;2.78;;;15.70;99.90;;;;;;4968304;28;20142;-59
2022/06/09 07:21:11;;;;;;;14.15;2.90;;;15.80;99.90;;;;;;4969356;28;20057;-57
2022/06/09 07:23:38;;;;;;;13.23;3.70;;;15.90;99.90;;;;;;4968075;28;20141;-57
2022/06/09 07:26:05;;;;;;;17.25;2.85;;;15.90;99.90;;;;;;4968993;28;20051;-57
2022/06/09 07:28:32;;;;;;;17.75;3.10;;;16.00;99.90;;;;;;4964997;28;20051;-58
2022/06/09 07:30:59;;;;;;;14.88;4.45;;;16.00;99.90;;;;;;4968986;28;20077;-59
2022/06/09 07:33:30;;;;;;;15.35;2.88;;;16.10;99.90;;;;;;4967903;28;20081;-58
2022/06/09 07:36:07;;;;;;;23.90;4.22;;;16.00;99.90;;;;;;4967755;28;20046;-60
2022/06/09 07:38:35;;;;;;;16.75;3.67;;;16.00;99.90;;;;;;4969195;28;20506;-58
2022/06/09 07:41:02;;;;;;;17.20;2.90;;;16.10;99.90;;;;;;4967517;28;20055;-61
2022/06/09 07:43:49;;;;;;;18.38;3.13;;;16.10;99.90;;;;;;4968708;28;20121;-58
2022/06/09 07:46:16;;;;;;;16.27;3.60;;;16.20;99.90;;;;;;4969504;28;20039;-59
2022/06/09 07:48:45;;;;;;;9.52;2.75;;;16.30;99.90;;;;;;4969306;28;20055;-58
2022/06/09 07:51:15;;;;;;;13.65;3.10;;;16.40;99.90;;;;;;4969325;28;20042;-57
2022/06/09 07:53:42;;;;;;;14.18;2.05;;;16.40;99.90;;;;;;4969375;28;20058;-58
2022/06/09 07:56:10;;;;;;;15.35;2.42;;;16.40;99.90;;;;;;4968672;28;20073;-59
2022/06/09 07:58:36;;;;;;;18.33;2.17;;;16.40;99.90;;;;;;4968704;28;20059;-58
2022/06/09 08:01:04;;;;;;;12.88;2.78;;;16.40;99.90;;;;;;4967609;28;20043;-59
2022/06/09 08:03:31;;;;;;;18.40;2.97;;;16.40;99.90;;;;;;4965795;28;20057;-59
2022/06/09 08:05:57;;;;;;;13.45;3.75;;;16.40;99.90;;;;;;4967570;28;20042;-58
2022/06/09 08:08:44;;;;;;;9.98;2.45;;;16.50;99.90;;;;;;4967211;28;20047;-58
2022/06/09 08:11:11;;;;;;;15.98;2.53;;;16.50;99.90;;;;;;4966842;28;20046;-58
2022/06/09 08:13:38;;;;;;;16.13;4.00;;;16.50;99.90;;;;;;4967252;28;20050;-58
2022/06/09 08:16:05;;;;;;;13.02;2.88;;;16.50;99.90;;;;;;4968367;28;20063;-58
2022/06/09 08:18:32;;;;;;;11.15;2.60;;;16.60;99.90;;;;;;4969279;28;20125;-61
2022/06/09 08:20:59;;;;;;;12.32;2.58;;;16.60;99.90;;;;;;4968737;28;20058;-55
2022/06/09 08:23:43;;;;;;;11.60;2.33;;;16.70;99.90;;;;;;4968322;28;20141;-59
2022/06/09 08:26:10;;;;;;;12.07;2.13;;;16.70;99.90;;;;;;4967692;28;20113;-58
2022/06/09 08:28:40;;;;;;;11.32;2.22;;;16.80;99.90;;;;;;4968853;28;20119;-60
2022/06/09 08:31:07;;;;;;;18.15;2.92;;;16.80;99.90;;;;;;4968842;28;20107;-63
2022/06/09 08:33:35;;;;;;;9.40;2.00;;;16.90;99.90;;;;;;4968268;28;20046;-56
2022/06/09 08:36:02;;;;;;;17.58;2.85;;;16.90;99.90;;;;;;4967959;28;20108;-57
2022/06/09 08:38:29;;;;;;;20.45;2.33;;;17.00;99.90;;;;;;4981780;28;20051;-57
2022/06/09 08:41:13;;;;;;;8.32;2.00;;;17.00;99.90;;;;;;4964182;28;20042;-60
2022/06/09 08:43:42;;;;;;;8.00;2.58;;;17.10;99.90;;;;;;4967631;28;20081;-58
2022/06/09 08:46:39;;;;;;;10.73;2.00;;;17.10;99.90;;;;;;4967901;28;20046;-57
2022/06/09 08:49:09;;;;;;;7.72;1.95;;;17.10;99.90;;;;;;4959769;28;20441;-58
2022/06/09 08:51:40;;;;;;;15.02;2.67;;;17.20;99.90;;;;;;4968554;28;20042;-58
2022/06/09 08:54:31;;;;;;;10.75;1.95;;;17.20;99.90;;;;;;4966758;28;20051;-58
2022/06/09 08:57:01;;;;;;;9.80;2.42;;;17.30;99.90;;;;;;4966932;28;20129;-58
2022/06/09 08:59:30;;;;;;;8.07;2.03;;;17.40;99.90;;;;;;4965137;28;20082;-58
2022/06/09 09:02:00;;;;;;;14.45;3.53;;;17.40;99.90;;;;;;4990855;28;20047;-60
2022/06/09 09:04:34;;;;;;;7.97;1.63;;;17.40;99.90;;;;;;4967408;28;20047;-57
2022/06/09 09:07:06;;;;;;;7.68;2.95;;;17.60;99.90;;;;;;4965031;28;20126;-57
2022/06/09 09:09:35;;;;;;;11.25;2.05;;;17.70;99.90;;;;;;4964684;28;20819;-59
2022/06/09 09:12:19;;;;;;;12.98;2.17;;;17.90;99.90;;;;;;4965285;28;20694;-59
2022/06/09 09:14:51;;;;;;;12.32;3.65;;;18.00;99.90;;;;;;4993700;28;20113;-59
2022/06/09 09:17:35;;;;;;;9.50;1.80;;;18.20;99.90;;;;;;4964839;28;20177;-60
2022/06/09 09:20:24;;;;;;;15.27;2.13;;;18.40;99.40;;;;;;4962341;28;20055;-59
2022/06/09 09:23:14;;;;;;;9.40;1.85;;;18.50;97.30;;;;;;4962427;28;20079;-58
2022/06/09 09:25:57;;;;;;;8.93;1.75;;;18.60;97.20;;;;;;4966832;28;20051;-60
2022/06/09 09:28:30;;;;;;;8.27;1.53;;;18.60;98.30;;;;;;4967009;28;20109;-62
2022/06/09 09:31:18;;;;;;;8.68;1.80;;;18.60;99.90;;;;;;4967418;28;20082;-58
2022/06/09 09:33:45;;;;;;;13.27;3.42;;;18.60;98.00;;;;;;4968385;28;20075;-57
2022/06/09 09:36:24;;;;;;;12.25;2.08;;;18.60;99.10;;;;;;4967956;28;20098;-56
2022/06/09 09:39:14;;;;;;;12.00;1.85;;;18.70;98.20;;;;;;4967803;28;20615;-55
2022/06/09 09:41:41;;;;;;;8.27;2.17;;;18.80;97.90;;;;;;4966507;28;20565;-59
2022/06/09 09:44:15;;;;;;;7.65;1.77;;;18.90;98.80;;;;;;4967250;28;20059;-54
2022/06/09 09:46:42;;;;;;;15.93;3.00;;;19.00;98.20;;;;;;4968282;28;20105;-59
2022/06/09 09:49:22;;;;;;;12.98;1.60;;;19.10;99.00;;;;;;4966788;28;20093;-61
2022/06/09 09:51:49;;;;;;;9.20;2.28;;;19.40;96.80;;;;;;4966745;28;20046;-58
2022/06/09 09:54:23;;;;;;;9.60;2.10;;;19.40;97.60;;;;;;4992622;28;20071;-58
2022/06/09 09:56:49;;;;;;;13.65;2.45;;;19.40;96.70;;;;;;4964982;28;20050;-59
2022/06/09 09:59:24;;;;;;;14.18;2.67;;;19.50;98.00;;;;;;4965249;28;20099;-58
2022/06/09 10:10:32;;;;;;;8.55;1.92;;;19.60;97.20;;;;;;4970773;28;20047;-56
2022/06/09 10:12:59;;;;;;;11.48;2.15;;;19.70;97.30;;;;;;4993691;28;20506;-58
2022/06/09 10:15:43;;;;;;;7.38;1.80;;;19.90;97.00;;;;;;4971143;28;20065;-57
2022/06/09 10:18:20;;;;;;;5.22;1.40;;;20.00;94.90;;;;;;4969704;28;20470;-58
2022/06/09 10:21:10;;;;;;;8.15;2.13;;;20.00;94.10;;;;;;4990645;28;20058;-59
2022/06/09 10:23:49;;;;;;;11.73;2.38;;;20.20;95.60;;;;;;4969128;28;20465;-57
2022/06/09 10:26:17;;;;;;;10.45;2.33;;;20.30;94.20;;;;;;4968123;28;20134;-58
2022/06/09 10:29:04;;;;;;;9.63;2.92;;;20.30;96.10;;;;;;4968646;28;20062;-58
2022/06/09 10:31:57;;;;;;;6.40;1.60;;;20.40;93.70;;;;;;4983834;28;20039;-58
2022/06/09 10:34:42;;;;;;;7.80;1.70;;;20.40;94.50;;;;;;4968269;28;20203;-59
2022/06/09 10:37:39;;;;;;;6.55;1.60;;;20.20;92.20;;;;;;4970125;28;20055;-59
2022/06/09 10:40:32;;;;;;;9.23;1.85;;;20.20;93.00;;;;;;4984432;28;20089;-58
2022/06/09 10:43:18;;;;;;;10.68;2.03;;;20.20;92.20;;;;;;4993689;28;20071;-58
2022/06/09 10:45:50;;;;;;;8.48;1.65;;;20.10;92.60;;;;;;4969918;28;20482;-58
2022/06/09 10:57:40;;;;;;;12.73;3.35;;;20.20;94.10;;;;;;4987698;28;20042;-60
2022/06/09 11:00:28;;;;;;;8.82;1.67;;;20.30;92.90;;;;;;4964349;28;20043;-60
2022/06/09 11:02:58;;;;;;;16.73;2.25;;;20.40;91.70;;;;;;4958210;28;20118;-59
2022/06/09 11:05:51;;;;;;;10.63;1.60;;;20.40;93.70;;;;;;4967863;28;20596;-58
2022/06/09 11:08:39;;;;;;;6.47;1.73;;;20.60;91.90;;;;;;4969212;28;20446;-59
2022/06/09 11:11:09;;;;;;;8.98;2.08;;;20.60;91.50;;;;;;4966844;28;20046;-57
2022/06/09 11:13:35;;;;;;;8.38;1.48;;;20.60;93.00;;;;;;4969567;28;20047;-58
2022/06/09 11:16:15;;;;;;;10.90;3.17;;;20.70;93.60;;;;;;4969611;28;20042;-58
2022/06/09 11:19:13;;;;;;;14.55;2.13;;;20.60;93.10;;;;;;4969847;28;20059;-58
2022/06/09 11:22:12;;;;;;;5.32;1.75;;;20.50;92.50;;;;;;4985427;28;20086;-58
2022/06/09 11:24:59;;;;;;;5.68;1.83;;;20.50;91.60;;;;;;4957289;28;20051;-58
2022/06/09 11:27:33;;;;;;;12.10;2.33;;;20.30;91.90;;;;;;4969889;28;20340;-57
2022/06/09 11:30:19;;;;;;;8.85;2.45;;;20.20;92.70;;;;;;4967175;28;20078;-57
2022/06/09 11:33:15;;;;;;;5.97;1.70;;;20.10;93.10;;;;;;4968244;28;20085;-58
2022/06/09 11:35:55;;;;;;;9.43;2.22;;;20.00;93.20;;;;;;4959760;28;20055;-58
2022/06/09 11:38:29;;;;;;;8.52;2.40;;;19.90;94.00;;;;;;4969423;28;20498;-59
2022/06/09 11:41:17;;;;;;;16.50;3.28;;;20.00;94.10;;;;;;4969657;28;20595;-58
2022/06/09 11:44:30;;;;;;;12.23;1.85;;;20.10;93.70;;;;;;4969961;28;20047;-57
2022/06/09 11:47:00;;;;;;;13.68;4.13;;;20.00;93.30;;;;;;4968310;28;20145;-58
2022/06/09 11:49:36;;;;;;;8.82;1.90;;;19.90;93.60;;;;;;4966927;28;20078;-58
2022/06/09 11:52:13;;;;;;;10.30;1.85;;;19.90;92.80;;;;;;4997325;28;20053;-58
2022/06/09 11:54:48;;;;;;;8.25;1.90;;;19.90;93.00;;;;;;4966607;28;20422;-59
2022/06/09 11:57:21;;;;;;;7.47;2.22;;;20.00;92.90;;;;;;4968441;28;20079;-58
2022/06/09 12:00:03;;;;;;;9.25;2.03;;;20.20;92.80;;;;;;4968122;28;20101;-64
2022/06/09 12:02:41;;;;;;;14.00;2.30;;;20.30;91.90;;;;;;4969614;28;20101;-59
2022/06/09 12:05:22;;;;;;;10.50;2.38;;;20.50;92.80;;;;;;4961870;28;20151;-60
2022/06/09 12:08:13;;;;;;;11.98;2.22;;;20.50;93.10;;;;;;4966637;28;20751;-63
2022/06/09 12:11:03;;;;;;;10.00;1.90;;;20.60;93.80;;;;;;4963866;28;20058;-59
2022/06/09 12:14:02;;;;;;;8.82;1.58;;;20.50;92.30;;;;;;4964177;28;20055;-58
2022/06/09 12:16:38;;;;;;;9.23;2.40;;;20.60;92.00;;;;;;4996047;28;20093;-57
2022/06/09 12:19:15;;;;;;;7.03;1.52;;;20.50;90.80;;;;;;4967623;28;20137;-58
2022/06/09 12:21:48;;;;;;;11.38;2.28;;;20.40;90.80;;;;;;4964387;28;20129;-59
2022/06/09 12:24:24;;;;;;;7.63;1.88;;;20.50;93.00;;;;;;4963728;28;20099;-59
2022/06/09 12:26:55;;;;;;;6.65;1.73;;;20.50;93.60;;;;;;4963484;28;20729;-58
2022/06/09 12:29:37;;;;;;;10.65;2.83;;;20.60;94.50;;;;;;4965191;28;20054;-57
2022/06/09 12:32:07;;;;;;;8.98;1.85;;;20.60;93.60;;;;;;4960787;28;20047;-57
2022/06/09 12:34:37;;;;;;;6.45;1.98;;;20.50;93.90;;;;;;4966181;28;20050;-57
2022/06/09 12:37:04;;;;;;;10.10;1.73;;;20.30;94.50;;;;;;4967735;28;20046;-57
2022/06/09 12:39:40;;;;;;;8.48;1.70;;;20.30;94.10;;;;;;4967748;28;20461;-58
2022/06/09 12:42:18;;;;;;;6.65;1.70;;;20.40;94.10;;;;;;4967444;28;20053;-59
2022/06/09 12:45:04;;;;;;;10.30;2.05;;;20.60;93.00;;;;;;4968052;28;20089;-59
2022/06/09 12:47:30;;;;;;;11.52;1.73;;;20.70;92.90;;;;;;4966808;28;20618;-58
2022/06/09 12:49:59;;;;;;;5.57;1.38;;;20.90;93.00;;;;;;4968894;28;20078;-58
2022/06/09 12:52:32;;;;;;;5.53;1.25;;;21.00;90.40;;;;;;4968765;28;20047;-59
2022/06/09 12:55:00;;;;;;;6.28;1.45;;;20.90;89.10;;;;;;4967292;28;20085;-58
2022/06/09 12:57:31;;;;;;;6.60;1.40;;;21.00;91.20;;;;;;4966699;28;20743;-59
2022/06/09 13:00:12;;;;;;;8.98;1.95;;;21.30;91.00;;;;;;4964797;28;20589;-57
2022/06/09 13:02:39;;;;;;;6.10;2.10;;;21.30;87.90;;;;;;4977242;28;20455;-59
2022/06/09 13:05:17;;;;;;;13.25;1.45;;;21.30;90.50;;;;;;4967377;28;20073;-59
2022/06/09 13:08:12;;;;;;;7.80;1.92;;;21.30;90.50;;;;;;4972328;28;20058;-59
2022/06/09 13:10:41;;;;;;;9.70;2.80;;;21.60;91.30;;;;;;4997155;28;20112;-58
2022/06/09 13:13:17;;;;;;;8.52;1.90;;;21.60;91.90;;;;;;4967522;28;20454;-57
2022/06/09 13:15:58;;;;;;;6.05;1.95;;;21.60;92.40;;;;;;4968656;28;20058;-58
2022/06/09 13:18:47;;;;;;;6.47;1.90;;;21.60;92.40;;;;;;4964200;28;20046;-57
2022/06/09 13:21:21;;;;;;;5.78;1.65;;;21.60;92.20;;;;;;4967497;28;20502;-58
2022/06/09 13:23:50;;;;;;;7.13;2.08;;;21.60;92.20;;;;;;4968816;28;20097;-57
2022/06/09 13:26:26;;;;;;;6.40;1.73;;;21.50;92.60;;;;;;4966879;28;20595;-58
2022/06/09 13:28:54;;;;;;;8.52;1.85;;;21.50;91.70;;;;;;4967582;28;20519;-58
2022/06/09 13:31:37;;;;;;;9.50;1.77;;;21.30;92.70;;;;;;4998409;28;20051;-58